Flight Track Log - Related Links

Times and Time Zones

All times are in EDT time to prevent confusion due to time zone crossing. See the N449ND flight status page for this flight to view local times or setup timezone preferences in your user account.

Time Position Orientation Groundspeed Altitude Reporting Facility
EDT Latitude Longitude Course Direction KTS MPH feet Rate Location/Type
Tue 08:51:27 PM 27.4989 -80.3756 152° Southeast 71 82 300  Level Miami Center
Tue 08:52:28 PM 27.4933 -80.3997 255° West 97 112 900 541 Climbing Miami Center
Tue 08:53:29 PM 27.4725 -80.4186 219° Southwest 97 112 1,400 541 Climbing Miami Center
Tue 08:54:30 PM 27.4511 -80.4394 221° Southwest 98 113 2,000 344 Climbing Miami Center
Tue 08:55:31 PM 27.4419 -80.4669 249° West 102 117 2,100 148 Climbing Miami Center
Tue 08:56:00 PM 27.4975 -80.3726 152° Southeast  Level Estimated
Tue 08:56:32 PM 27.4222 -80.4928 229° Southwest 117 135 2,300  Level Miami Center
Tue 08:57:32 PM 27.4056 -80.4717 132° Southeast 103 119 2,800 397 Climbing Miami Center
Tue 08:58:33 PM 27.4072 -80.4444 86° East 92 106 3,100 148 Climbing Miami Center
Tue 08:59:34 PM 27.4200 -80.4139 65° Northeast 102 117 3,100  Level Miami Center
Tue 09:00:35 PM 27.4328 -80.3900 59° Northeast 97 112 3,100  Level Miami Center
Tue 09:01:36 PM 27.4411 -80.3586 73° East 98 113 3,100  Level Miami Center
Tue 09:02:37 PM 27.4519 -80.3303 67° East 99 114 3,100  Level Miami Center
Tue 09:03:38 PM 27.4681 -80.3106 47° Northeast 91 105 3,100  Level Miami Center
Tue 09:04:39 PM 27.4839 -80.2872 53° Northeast 91 105 3,100  Level Miami Center
Tue 09:05:40 PM 27.5039 -80.2706 36° Northeast 89 102 3,100  Level Miami Center
Tue 09:06:41 PM 27.5136 -80.2450 67° East 90 104 3,100  Level Miami Center
Tue 09:07:42 PM 27.5367 -80.2364 18° North 84 97 3,100 49 Level Miami Center
Tue 09:08:43 PM 27.5581 -80.2258 24° Northeast 83 96 3,200 98 Climbing Miami Center
Tue 09:09:44 PM 27.5714 -80.2106 45° Northeast 87 100 3,300 -49 Climbing Miami Center
Tue 09:10:45 PM 27.5689 -80.1764 95° East 104 120 3,100 -98 Descending Miami Center
Tue 09:11:46 PM 27.5478 -80.1597 145° Southeast 128 147 3,100  Level Miami Center
Tue 09:12:47 PM 27.5492 -80.1867 273° West 91 105 3,100  Level Miami Center
Tue 09:13:48 PM 27.5658 -80.2061 314° West 83 96 3,100  Level Miami Center
Tue 09:14:49 PM 27.5831 -80.2172 330° Northwest 80 92 3,100  Level Miami Center
Tue 09:15:49 PM 27.5789 -80.1906 100° East 95 109 3,100  Level Miami Center
Tue 09:16:50 PM 27.5547 -80.1831 165° South 119 137 3,100  Level Miami Center
Tue 09:17:51 PM 27.5653 -80.2083 295° West 92 106 3,100 -148 Level Miami Center
Tue 09:18:52 PM 27.5822 -80.2250 319° Northwest 84 97 2,800 -492 Descending Miami Center
Tue 09:19:53 PM 27.5922 -80.2514 293° West 92 106 2,100 -443 Descending Miami Center
Tue 09:20:54 PM 27.6042 -80.2811 294° West 98 113 1,900 -98 Descending Miami Center
Tue 09:21:55 PM 27.6150 -80.3122 291° West 100 115 1,900 -246 Level Miami Center
Tue 09:22:56 PM 27.6239 -80.3383 291° West 98 113 1,400 -541 Descending Miami Center
Tue 09:23:57 PM 27.6358 -80.3631 299° West 90 104 800 -397 Descending Miami Center
Tue 09:24:57 PM 27.6442 -80.3872 291° West 89 102 600 -50 Descending Miami Center
Tue 09:25:58 PM 27.6511 -80.4131 287° West 86 99 700 393 Climbing Miami Center
Tue 09:26:59 PM 27.6708 -80.4200 343° North 76 87 1,400 541 Climbing Miami Center
Tue 09:28:00 PM 27.6903 -80.4236 351° North 74 85 1,800 443 Climbing Miami Center
Tue 09:29:01 PM 27.7108 -80.4261 354° North 73 84 2,300 492 Climbing Miami Center
Tue 09:30:02 PM 27.7275 -80.4150 31° Northeast 71 82 2,800 443 Climbing Miami Center
Tue 09:31:03 PM 27.7436 -80.4022 35° Northeast 72 83 3,200 443 Climbing Miami Center
Tue 09:32:04 PM 27.7567 -80.3822 54° Northeast 73 84 3,700 443 Climbing Miami Center
Tue 09:33:05 PM 27.7694 -80.3664 48° Northeast 74 85 4,100 197 Climbing Miami Center
Tue 09:34:06 PM 27.7847 -80.3433 53° Northeast 85 98 4,100  Level Miami Center
Tue 09:35:06 PM 27.7989 -80.3197 56° Northeast 87 100 4,100  Level Miami Center
Tue 09:36:07 PM 27.7764 -80.3078 155° Southeast 117 135 4,100  Level Miami Center
Tue 09:37:08 PM 27.7764 -80.3403 270° West 97 112 4,100 49 Level Miami Center
Tue 09:38:09 PM 27.7525 -80.3431 186° South 118 136 4,200 49 Climbing Miami Center
Tue 09:39:10 PM 27.7633 -80.3164 65° Northeast 89 102 4,200 -49 Level Miami Center
Tue 09:40:11 PM 27.7325 -80.3156 179° South 122 140 4,100 -49 Descending Miami Center
Tue 09:41:12 PM 27.7028 -80.3333 208° Southwest 122 140 4,100  Level Miami Center
Tue 09:42:13 PM 27.6714 -80.3511 207° Southwest 122 140 4,100  Level Miami Center
Tue 09:43:13 PM 27.6414 -80.3669 205° Southwest 122 140 4,100  Level Miami Center
Tue 09:44:14 PM 27.6094 -80.3847 206° Southwest 122 140 4,100 -98 Level Miami Center
Tue 09:45:15 PM 27.5808 -80.4075 215° Southwest 122 140 3,900 -492 Descending Miami Center
Tue 09:46:16 PM 27.5619 -80.4333 230° Southwest 113 130 3,100 -393 Descending Miami Center
Tue 09:47:17 PM 27.5556 -80.4661 258° West 103 119 3,100 49 Level Miami Center
Tue 09:48:18 PM 27.5486 -80.4950 255° West 98 113 3,200  Climbing Miami Center
Tue 09:49:19 PM 27.5422 -80.5258 257° West 98 113 3,100 -49 Descending Miami Center
Tue 09:50:20 PM 27.5192 -80.5481 221° Southwest 108 124 3,100 -295 Level Miami Center
Tue 09:51:21 PM 27.4981 -80.5333 148° Southeast 111 128 2,500 -590 Descending Miami Center

Login

Don't have an account? Register now (free) for customized features, flight alerts, and more!